sensor_id;sensor_type;location;lat;lon;timestamp;temperature;humidity
75786;DHT22;64402;44.708;37.644;2023-03-01T00:01:28;5.27;78.65
75786;DHT22;64402;44.708;37.644;2023-03-01T00:03:57;5.19;78.27
75786;DHT22;64402;44.708;37.644;2023-03-01T00:06:24;5.20;78.78
75786;DHT22;64402;44.708;37.644;2023-03-01T00:08:51;5.15;78.62
75786;DHT22;64402;44.708;37.644;2023-03-01T00:11:28;5.13;78.89
75786;DHT22;64402;44.708;37.644;2023-03-01T00:13:59;5.10;78.85
75786;DHT22;64402;44.708;37.644;2023-03-01T00:16:29;5.08;78.94
75786;DHT22;64402;44.708;37.644;2023-03-01T00:18:57;5.04;78.67
75786;DHT22;64402;44.708;37.644;2023-03-01T00:21:23;5.00;78.75
75786;DHT22;64402;44.708;37.644;2023-03-01T00:23:50;4.95;78.95
75786;DHT22;64402;44.708;37.644;2023-03-01T00:26:18;4.89;79.59
75786;DHT22;64402;44.708;37.644;2023-03-01T00:28:44;4.87;79.22
75786;DHT22;64402;44.708;37.644;2023-03-01T00:31:18;4.77;79.43
75786;DHT22;64402;44.708;37.644;2023-03-01T00:33:45;4.66;79.87
75786;DHT22;64402;44.708;37.644;2023-03-01T00:36:12;4.60;79.95
75786;DHT22;64402;44.708;37.644;2023-03-01T00:38:42;4.56;79.85
75786;DHT22;64402;44.708;37.644;2023-03-01T00:41:11;4.53;79.90
75786;DHT22;64402;44.708;37.644;2023-03-01T00:43:38;4.49;80.39
75786;DHT22;64402;44.708;37.644;2023-03-01T00:46:06;4.44;80.33
75786;DHT22;64402;44.708;37.644;2023-03-01T00:48:33;4.36;80.73
75786;DHT22;64402;44.708;37.644;2023-03-01T00:51:21;4.33;80.94
75786;DHT22;64402;44.708;37.644;2023-03-01T00:53:50;4.28;81.19
75786;DHT22;64402;44.708;37.644;2023-03-01T00:56:17;4.24;81.32
75786;DHT22;64402;44.708;37.644;2023-03-01T00:58:43;4.21;81.24
75786;DHT22;64402;44.708;37.644;2023-03-01T01:03:52;4.18;81.31
75786;DHT22;64402;44.708;37.644;2023-03-01T01:06:24;4.18;81.72
75786;DHT22;64402;44.708;37.644;2023-03-01T01:08:52;4.15;81.53
75786;DHT22;64402;44.708;37.644;2023-03-01T01:11:19;4.10;81.88
75786;DHT22;64402;44.708;37.644;2023-03-01T01:13:46;4.10;81.71
75786;DHT22;64402;44.708;37.644;2023-03-01T01:16:13;4.09;81.41
75786;DHT22;64402;44.708;37.644;2023-03-01T01:18:40;4.04;81.77
75786;DHT22;64402;44.708;37.644;2023-03-01T01:21:08;3.99;81.49
75786;DHT22;64402;44.708;37.644;2023-03-01T01:23:34;3.97;81.92
75786;DHT22;64402;44.708;37.644;2023-03-01T01:26:12;3.95;82.11
75786;DHT22;64402;44.708;37.644;2023-03-01T01:28:38;3.94;82.23
75786;DHT22;64402;44.708;37.644;2023-03-01T01:31:05;3.93;82.18
75786;DHT22;64402;44.708;37.644;2023-03-01T01:33:33;3.92;81.83
75786;DHT22;64402;44.708;37.644;2023-03-01T01:36:01;3.89;81.68
75786;DHT22;64402;44.708;37.644;2023-03-01T01:38:28;3.88;82.04
75786;DHT22;64402;44.708;37.644;2023-03-01T01:40:54;3.87;82.09
75786;DHT22;64402;44.708;37.644;2023-03-01T01:43:29;3.86;82.04
75786;DHT22;64402;44.708;37.644;2023-03-01T01:46:06;3.84;81.92
75786;DHT22;64402;44.708;37.644;2023-03-01T01:48:44;3.83;81.89
75786;DHT22;64402;44.708;37.644;2023-03-01T01:51:19;3.83;81.86
75786;DHT22;64402;44.708;37.644;2023-03-01T01:53:48;3.85;81.72
75786;DHT22;64402;44.708;37.644;2023-03-01T01:56:18;3.84;81.71
75786;DHT22;64402;44.708;37.644;2023-03-01T01:58:45;3.84;81.62
75786;DHT22;64402;44.708;37.644;2023-03-01T02:01:13;3.80;81.76
75786;DHT22;64402;44.708;37.644;2023-03-01T02:03:41;3.79;81.60
75786;DHT22;64402;44.708;37.644;2023-03-01T02:08:40;3.77;81.63
75786;DHT22;64402;44.708;37.644;2023-03-01T02:11:07;3.77;81.58
75786;DHT22;64402;44.708;37.644;2023-03-01T02:13:35;3.76;81.38
75786;DHT22;64402;44.708;37.644;2023-03-01T02:16:08;3.76;81.55
75786;DHT22;64402;44.708;37.644;2023-03-01T02:18:35;3.74;81.65
75786;DHT22;64402;44.708;37.644;2023-03-01T02:23:53;3.74;80.89
75786;DHT22;64402;44.708;37.644;2023-03-01T02:26:48;3.73;81.37
75786;DHT22;64402;44.708;37.644;2023-03-01T02:29:15;3.74;80.85
75786;DHT22;64402;44.708;37.644;2023-03-01T02:31:41;3.74;80.88
75786;DHT22;64402;44.708;37.644;2023-03-01T02:34:16;3.77;80.95
75786;DHT22;64402;44.708;37.644;2023-03-01T02:36:49;3.77;80.30
75786;DHT22;64402;44.708;37.644;2023-03-01T02:39:24;3.80;80.26
75786;DHT22;64402;44.708;37.644;2023-03-01T02:41:53;3.83;79.91
75786;DHT22;64402;44.708;37.644;2023-03-01T02:44:20;3.83;79.88
75786;DHT22;64402;44.708;37.644;2023-03-01T02:46:50;3.86;79.72
75786;DHT22;64402;44.708;37.644;2023-03-01T02:49:26;3.88;79.31
75786;DHT22;64402;44.708;37.644;2023-03-01T02:55:03;3.91;79.75
75786;DHT22;64402;44.708;37.644;2023-03-01T02:57:32;3.94;79.04
75786;DHT22;64402;44.708;37.644;2023-03-01T03:00:03;3.97;79.06
75786;DHT22;64402;44.708;37.644;2023-03-01T03:02:33;3.98;79.46
75786;DHT22;64402;44.708;37.644;2023-03-01T03:05:13;3.98;79.21
75786;DHT22;64402;44.708;37.644;2023-03-01T03:07:41;4.02;79.01
75786;DHT22;64402;44.708;37.644;2023-03-01T03:10:14;4.00;79.22
75786;DHT22;64402;44.708;37.644;2023-03-01T03:12:40;4.03;78.98
75786;DHT22;64402;44.708;37.644;2023-03-01T03:15:09;4.03;78.62
75786;DHT22;64402;44.708;37.644;2023-03-01T03:17:36;4.06;79.06
75786;DHT22;64402;44.708;37.644;2023-03-01T03:20:04;4.06;78.80
75786;DHT22;64402;44.708;37.644;2023-03-01T03:22:31;4.08;78.85
75786;DHT22;64402;44.708;37.644;2023-03-01T03:24:59;4.08;78.60
75786;DHT22;64402;44.708;37.644;2023-03-01T03:27:25;4.07;78.97
75786;DHT22;64402;44.708;37.644;2023-03-01T03:29:51;4.12;78.50
75786;DHT22;64402;44.708;37.644;2023-03-01T03:32:18;4.12;78.66
75786;DHT22;64402;44.708;37.644;2023-03-01T03:34:44;4.10;78.59
75786;DHT22;64402;44.708;37.644;2023-03-01T03:37:10;4.09;78.51
75786;DHT22;64402;44.708;37.644;2023-03-01T03:39:56;4.09;78.59
75786;DHT22;64402;44.708;37.644;2023-03-01T03:42:22;4.08;78.87
75786;DHT22;64402;44.708;37.644;2023-03-01T03:44:48;4.08;78.73
75786;DHT22;64402;44.708;37.644;2023-03-01T03:47:14;4.07;79.20
75786;DHT22;64402;44.708;37.644;2023-03-01T03:49:40;4.07;78.90
75786;DHT22;64402;44.708;37.644;2023-03-01T03:52:06;4.06;79.08
75786;DHT22;64402;44.708;37.644;2023-03-01T03:54:42;4.08;78.78
75786;DHT22;64402;44.708;37.644;2023-03-01T03:57:08;4.08;78.75
75786;DHT22;64402;44.708;37.644;2023-03-01T03:59:34;4.10;79.05
75786;DHT22;64402;44.708;37.644;2023-03-01T04:02:00;4.13;78.85
75786;DHT22;64402;44.708;37.644;2023-03-01T04:04:26;4.12;78.95
75786;DHT22;64402;44.708;37.644;2023-03-01T04:06:52;4.13;78.62
75786;DHT22;64402;44.708;37.644;2023-03-01T04:09:18;4.13;78.47
75786;DHT22;64402;44.708;37.644;2023-03-01T04:11:44;4.16;78.27
75786;DHT22;64402;44.708;37.644;2023-03-01T04:14:10;4.15;78.50
75786;DHT22;64402;44.708;37.644;2023-03-01T04:16:37;4.14;78.36
75786;DHT22;64402;44.708;37.644;2023-03-01T04:19:03;4.14;78.92
75786;DHT22;64402;44.708;37.644;2023-03-01T04:21:29;4.17;78.43
75786;DHT22;64402;44.708;37.644;2023-03-01T04:23:55;4.17;78.42
75786;DHT22;64402;44.708;37.644;2023-03-01T04:26:21;4.16;78.37
75786;DHT22;64402;44.708;37.644;2023-03-01T04:28:47;4.16;78.59
75786;DHT22;64402;44.708;37.644;2023-03-01T04:31:17;4.14;78.40
75786;DHT22;64402;44.708;37.644;2023-03-01T04:33:52;4.13;78.57
75786;DHT22;64402;44.708;37.644;2023-03-01T04:36:18;4.16;78.79
75786;DHT22;64402;44.708;37.644;2023-03-01T04:38:45;4.20;77.84
75786;DHT22;64402;44.708;37.644;2023-03-01T04:41:17;4.21;78.34
75786;DHT22;64402;44.708;37.644;2023-03-01T04:43:43;4.30;78.64
75786;DHT22;64402;44.708;37.644;2023-03-01T04:46:13;4.36;78.08
75786;DHT22;64402;44.708;37.644;2023-03-01T04:48:41;4.37;78.11
75786;DHT22;64402;44.708;37.644;2023-03-01T04:51:07;4.41;77.92
75786;DHT22;64402;44.708;37.644;2023-03-01T04:53:34;4.45;77.93
75786;DHT22;64402;44.708;37.644;2023-03-01T04:56:02;4.49;77.79
75786;DHT22;64402;44.708;37.644;2023-03-01T04:58:29;4.50;77.53
75786;DHT22;64402;44.708;37.644;2023-03-01T05:00:55;4.56;77.47
75786;DHT22;64402;44.708;37.644;2023-03-01T05:03:22;4.59;77.16
75786;DHT22;64402;44.708;37.644;2023-03-01T05:05:50;4.61;76.93
75786;DHT22;64402;44.708;37.644;2023-03-01T05:08:17;4.63;76.98
75786;DHT22;64402;44.708;37.644;2023-03-01T05:10:45;4.64;76.97
75786;DHT22;64402;44.708;37.644;2023-03-01T05:13:12;4.73;76.48
75786;DHT22;64402;44.708;37.644;2023-03-01T05:15:58;4.78;76.18
75786;DHT22;64402;44.708;37.644;2023-03-01T05:18:25;4.80;76.46
75786;DHT22;64402;44.708;37.644;2023-03-01T05:20:53;4.89;76.24
75786;DHT22;64402;44.708;37.644;2023-03-01T05:23:22;4.95;76.05
75786;DHT22;64402;44.708;37.644;2023-03-01T05:25:48;5.03;75.87
75786;DHT22;64402;44.708;37.644;2023-03-01T05:28:19;5.02;75.41
75786;DHT22;64402;44.708;37.644;2023-03-01T05:30:46;4.96;74.68
75786;DHT22;64402;44.708;37.644;2023-03-01T05:33:12;4.87;75.60
75786;DHT22;64402;44.708;37.644;2023-03-01T05:35:42;4.93;75.76
75786;DHT22;64402;44.708;37.644;2023-03-01T05:38:10;4.90;74.86
75786;DHT22;64402;44.708;37.644;2023-03-01T05:40:40;4.80;75.44
75786;DHT22;64402;44.708;37.644;2023-03-01T05:43:06;4.65;75.89
75786;DHT22;64402;44.708;37.644;2023-03-01T05:45:33;4.49;77.08
75786;DHT22;64402;44.708;37.644;2023-03-01T05:48:01;4.42;77.60
75786;DHT22;64402;44.708;37.644;2023-03-01T05:50:29;4.52;76.83
75786;DHT22;64402;44.708;37.644;2023-03-01T05:53:06;4.48;77.04
75786;DHT22;64402;44.708;37.644;2023-03-01T05:55:34;4.59;76.98
75786;DHT22;64402;44.708;37.644;2023-03-01T05:58:03;4.73;76.42
75786;DHT22;64402;44.708;37.644;2023-03-01T06:00:30;4.78;76.60
75786;DHT22;64402;44.708;37.644;2023-03-01T06:02:57;4.88;76.10
75786;DHT22;64402;44.708;37.644;2023-03-01T06:05:23;4.94;75.92
75786;DHT22;64402;44.708;37.644;2023-03-01T06:07:50;4.91;75.70
75786;DHT22;64402;44.708;37.644;2023-03-01T06:10:19;4.91;76.04
75786;DHT22;64402;44.708;37.644;2023-03-01T06:12:45;4.97;75.79
75786;DHT22;64402;44.708;37.644;2023-03-01T06:15:14;4.95;75.02
75786;DHT22;64402;44.708;37.644;2023-03-01T06:17:42;4.97;75.57
75786;DHT22;64402;44.708;37.644;2023-03-01T06:20:18;4.94;74.64
75786;DHT22;64402;44.708;37.644;2023-03-01T06:22:45;4.90;74.46
75786;DHT22;64402;44.708;37.644;2023-03-01T06:25:14;4.81;75.15
75786;DHT22;64402;44.708;37.644;2023-03-01T06:27:41;4.91;75.12
75786;DHT22;64402;44.708;37.644;2023-03-01T06:30:10;4.91;74.37
75786;DHT22;64402;44.708;37.644;2023-03-01T06:32:37;5.03;74.93
75786;DHT22;64402;44.708;37.644;2023-03-01T06:35:04;5.11;73.92
75786;DHT22;64402;44.708;37.644;2023-03-01T06:37:30;5.28;73.79
75786;DHT22;64402;44.708;37.644;2023-03-01T06:39:57;5.42;72.61
75786;DHT22;64402;44.708;37.644;2023-03-01T06:42:23;5.49;72.21
75786;DHT22;64402;44.708;37.644;2023-03-01T06:44:49;5.60;72.56
75786;DHT22;64402;44.708;37.644;2023-03-01T06:47:15;5.60;71.71
75786;DHT22;64402;44.708;37.644;2023-03-01T06:49:41;5.53;72.21
75786;DHT22;64402;44.708;37.644;2023-03-01T06:52:07;5.64;72.46
75786;DHT22;64402;44.708;37.644;2023-03-01T06:54:33;5.67;71.61
75786;DHT22;64402;44.708;37.644;2023-03-01T06:56:59;5.64;71.19
75786;DHT22;64402;44.708;37.644;2023-03-01T06:59:25;5.84;71.16
75786;DHT22;64402;44.708;37.644;2023-03-01T07:01:51;5.97;70.81
75786;DHT22;64402;44.708;37.644;2023-03-01T07:04:17;6.01;70.54
75786;DHT22;64402;44.708;37.644;2023-03-01T07:06:43;6.10;69.62
75786;DHT22;64402;44.708;37.644;2023-03-01T07:09:09;6.08;70.42
75786;DHT22;64402;44.708;37.644;2023-03-01T07:11:35;6.23;69.71
75786;DHT22;64402;44.708;37.644;2023-03-01T07:14:01;6.45;68.49
75786;DHT22;64402;44.708;37.644;2023-03-01T07:16:28;6.65;68.06
75786;DHT22;64402;44.708;37.644;2023-03-01T07:18:54;6.58;67.25
75786;DHT22;64402;44.708;37.644;2023-03-01T07:21:20;6.61;66.33
75786;DHT22;64402;44.708;37.644;2023-03-01T07:23:49;6.41;67.38
75786;DHT22;64402;44.708;37.644;2023-03-01T07:26:15;6.41;68.42
75786;DHT22;64402;44.708;37.644;2023-03-01T07:28:41;6.36;67.98
75786;DHT22;64402;44.708;37.644;2023-03-01T07:31:07;6.48;67.62
75786;DHT22;64402;44.708;37.644;2023-03-01T07:33:34;6.30;68.02
75786;DHT22;64402;44.708;37.644;2023-03-01T07:36:01;6.25;68.64
75786;DHT22;64402;44.708;37.644;2023-03-01T07:38:28;6.27;67.46
75786;DHT22;64402;44.708;37.644;2023-03-01T07:40:58;6.25;68.62
75786;DHT22;64402;44.708;37.644;2023-03-01T07:43:24;6.17;68.48
75786;DHT22;64402;44.708;37.644;2023-03-01T07:45:51;6.45;67.99
75786;DHT22;64402;44.708;37.644;2023-03-01T07:48:17;6.57;67.28
75786;DHT22;64402;44.708;37.644;2023-03-01T07:50:43;6.76;66.69
75786;DHT22;64402;44.708;37.644;2023-03-01T07:53:09;6.90;65.87
75786;DHT22;64402;44.708;37.644;2023-03-01T07:55:36;7.23;64.87
75786;DHT22;64402;44.708;37.644;2023-03-01T07:58:03;7.52;64.42
75786;DHT22;64402;44.708;37.644;2023-03-01T08:00:29;7.77;63.27
75786;DHT22;64402;44.708;37.644;2023-03-01T08:02:58;7.63;62.48
75786;DHT22;64402;44.708;37.644;2023-03-01T08:05:25;7.60;63.52
75786;DHT22;64402;44.708;37.644;2023-03-01T08:07:51;7.62;63.12
75786;DHT22;64402;44.708;37.644;2023-03-01T08:10:17;7.69;61.39
75786;DHT22;64402;44.708;37.644;2023-03-01T08:12:46;7.50;60.94
75786;DHT22;64402;44.708;37.644;2023-03-01T08:15:12;7.55;62.52
75786;DHT22;64402;44.708;37.644;2023-03-01T08:17:38;7.88;61.99
75786;DHT22;64402;44.708;37.644;2023-03-01T08:20:05;8.03;60.34
75786;DHT22;64402;44.708;37.644;2023-03-01T08:22:32;8.02;59.71
75786;DHT22;64402;44.708;37.644;2023-03-01T08:24:58;8.21;60.83
75786;DHT22;64402;44.708;37.644;2023-03-01T08:27:24;8.64;58.14
75786;DHT22;64402;44.708;37.644;2023-03-01T08:29:51;8.85;57.39
75786;DHT22;64402;44.708;37.644;2023-03-01T08:32:17;9.01;56.55
75786;DHT22;64402;44.708;37.644;2023-03-01T08:34:46;9.31;55.48
75786;DHT22;64402;44.708;37.644;2023-03-01T08:37:12;9.42;54.58
75786;DHT22;64402;44.708;37.644;2023-03-01T08:39:39;9.35;55.26
75786;DHT22;64402;44.708;37.644;2023-03-01T08:42:05;9.66;54.48
75786;DHT22;64402;44.708;37.644;2023-03-01T08:44:31;9.88;53.47
75786;DHT22;64402;44.708;37.644;2023-03-01T08:46:57;10.05;52.78
75786;DHT22;64402;44.708;37.644;2023-03-01T08:49:23;10.04;52.45
75786;DHT22;64402;44.708;37.644;2023-03-01T08:51:50;9.88;52.20
75786;DHT22;64402;44.708;37.644;2023-03-01T08:54:19;10.26;51.66
75786;DHT22;64402;44.708;37.644;2023-03-01T08:56:46;10.27;51.44
75786;DHT22;64402;44.708;37.644;2023-03-01T08:59:14;10.73;51.00
75786;DHT22;64402;44.708;37.644;2023-03-01T09:01:40;11.46;48.63
75786;DHT22;64402;44.708;37.644;2023-03-01T09:04:10;11.51;48.04
75786;DHT22;64402;44.708;37.644;2023-03-01T09:06:36;11.29;48.12
75786;DHT22;64402;44.708;37.644;2023-03-01T09:09:04;11.22;46.93
75786;DHT22;64402;44.708;37.644;2023-03-01T09:11:30;11.25;46.73
75786;DHT22;64402;44.708;37.644;2023-03-01T09:13:56;11.30;46.67
75786;DHT22;64402;44.708;37.644;2023-03-01T09:16:23;11.23;46.30
75786;DHT22;64402;44.708;37.644;2023-03-01T09:18:53;11.22;44.99
75786;DHT22;64402;44.708;37.644;2023-03-01T09:21:21;11.09;45.37
75786;DHT22;64402;44.708;37.644;2023-03-01T09:23:48;11.00;44.54
75786;DHT22;64402;44.708;37.644;2023-03-01T09:26:19;10.84;44.92
75786;DHT22;64402;44.708;37.644;2023-03-01T09:28:51;10.53;44.89
75786;DHT22;64402;44.708;37.644;2023-03-01T09:31:18;10.44;44.38
75786;DHT22;64402;44.708;37.644;2023-03-01T09:33:49;10.58;45.69
75786;DHT22;64402;44.708;37.644;2023-03-01T09:36:18;10.74;44.95
75786;DHT22;64402;44.708;37.644;2023-03-01T09:38:44;10.72;44.82
75786;DHT22;64402;44.708;37.644;2023-03-01T09:41:33;10.64;45.32
75786;DHT22;64402;44.708;37.644;2023-03-01T09:47:05;10.59;46.16
75786;DHT22;64402;44.708;37.644;2023-03-01T09:49:37;9.95;44.77
75786;DHT22;64402;44.708;37.644;2023-03-01T09:55:59;9.98;44.95
75786;DHT22;64402;44.708;37.644;2023-03-01T09:58:22;9.89;45.05
75786;DHT22;64402;44.708;37.644;2023-03-01T10:00:50;9.61;45.03
75786;DHT22;64402;44.708;37.644;2023-03-01T10:03:39;9.57;44.80
75786;DHT22;64402;44.708;37.644;2023-03-01T10:06:21;9.78;44.58
75786;DHT22;64402;44.708;37.644;2023-03-01T10:08:54;10.12;43.34
75786;DHT22;64402;44.708;37.644;2023-03-01T10:11:28;10.62;43.55
75786;DHT22;64402;44.708;37.644;2023-03-01T10:14:43;11.38;43.57
75786;DHT22;64402;44.708;37.644;2023-03-01T10:17:24;11.68;41.99
75786;DHT22;64402;44.708;37.644;2023-03-01T10:19:51;11.81;42.81
75786;DHT22;64402;44.708;37.644;2023-03-01T10:22:24;12.05;41.84
75786;DHT22;64402;44.708;37.644;2023-03-01T10:24:56;12.36;41.37
75786;DHT22;64402;44.708;37.644;2023-03-01T10:32:28;13.45;36.48
75786;DHT22;64402;44.708;37.644;2023-03-01T10:34:54;13.11;37.96
75786;DHT22;64402;44.708;37.644;2023-03-01T10:37:21;13.18;38.95
75786;DHT22;64402;44.708;37.644;2023-03-01T10:42:33;13.35;39.01
75786;DHT22;64402;44.708;37.644;2023-03-01T10:45:30;13.44;36.98
75786;DHT22;64402;44.708;37.644;2023-03-01T10:48:26;12.76;39.38
75786;DHT22;64402;44.708;37.644;2023-03-01T10:53:38;12.01;35.09
75786;DHT22;64402;44.708;37.644;2023-03-01T10:56:10;11.74;36.00
75786;DHT22;64402;44.708;37.644;2023-03-01T10:58:41;11.63;37.07
75786;DHT22;64402;44.708;37.644;2023-03-01T11:03:42;11.23;39.19
75786;DHT22;64402;44.708;37.644;2023-03-01T11:08:41;10.69;38.74
75786;DHT22;64402;44.708;37.644;2023-03-01T11:11:23;10.84;37.55
75786;DHT22;64402;44.708;37.644;2023-03-01T11:21:55;11.54;33.57
75786;DHT22;64402;44.708;37.644;2023-03-01T11:24:42;11.37;33.18
75786;DHT22;64402;44.708;37.644;2023-03-01T11:27:33;11.75;33.46
75786;DHT22;64402;44.708;37.644;2023-03-01T11:30:06;13.02;31.86
75786;DHT22;64402;44.708;37.644;2023-03-01T11:35:28;14.52;29.74
75786;DHT22;64402;44.708;37.644;2023-03-01T11:40:27;14.23;29.94
75786;DHT22;64402;44.708;37.644;2023-03-01T11:45:43;12.52;32.76
75786;DHT22;64402;44.708;37.644;2023-03-01T11:50:47;14.25;29.97
75786;DHT22;64402;44.708;37.644;2023-03-01T11:59:07;14.11;30.35
75786;DHT22;64402;44.708;37.644;2023-03-01T12:07:01;12.10;32.17
75786;DHT22;64402;44.708;37.644;2023-03-01T12:09:48;11.75;34.25
75786;DHT22;64402;44.708;37.644;2023-03-01T12:12:45;11.74;35.26
75786;DHT22;64402;44.708;37.644;2023-03-01T12:15:44;11.26;32.58
75786;DHT22;64402;44.708;37.644;2023-03-01T12:24:26;10.88;37.58
75786;DHT22;64402;44.708;37.644;2023-03-01T12:40:46;9.90;43.63
75786;DHT22;64402;44.708;37.644;2023-03-01T12:46:32;9.83;43.98
75786;DHT22;64402;44.708;37.644;2023-03-01T12:49:17;10.24;43.43
75786;DHT22;64402;44.708;37.644;2023-03-01T12:51:54;10.99;40.85
75786;DHT22;64402;44.708;37.644;2023-03-01T12:54:40;12.59;37.05
75786;DHT22;64402;44.708;37.644;2023-03-01T13:00:29;15.17;30.19
75786;DHT22;64402;44.708;37.644;2023-03-01T13:08:41;16.54;27.26
75786;DHT22;64402;44.708;37.644;2023-03-01T13:11:17;16.62;26.63
75786;DHT22;64402;44.708;37.644;2023-03-01T13:13:45;17.56;26.62
75786;DHT22;64402;44.708;37.644;2023-03-01T13:16:39;17.43;24.78
75786;DHT22;64402;44.708;37.644;2023-03-01T13:19:15;17.49;24.42
75786;DHT22;64402;44.708;37.644;2023-03-01T13:21:41;17.23;23.65
75786;DHT22;64402;44.708;37.644;2023-03-01T13:24:28;15.59;26.14
75786;DHT22;64402;44.708;37.644;2023-03-01T13:29:58;15.85;25.71
75786;DHT22;64402;44.708;37.644;2023-03-01T13:32:37;14.64;28.21
75786;DHT22;64402;44.708;37.644;2023-03-01T13:37:45;13.03;30.86
75786;DHT22;64402;44.708;37.644;2023-03-01T13:42:53;13.49;28.02
75786;DHT22;64402;44.708;37.644;2023-03-01T13:48:28;12.38;30.90
75786;DHT22;64402;44.708;37.644;2023-03-01T13:50:59;12.15;32.97
75786;DHT22;64402;44.708;37.644;2023-03-01T13:53:29;11.87;33.47
75786;DHT22;64402;44.708;37.644;2023-03-01T13:56:03;11.40;32.38
75786;DHT22;64402;44.708;37.644;2023-03-01T13:58:44;11.04;35.88
75786;DHT22;64402;44.708;37.644;2023-03-01T14:01:27;10.78;34.92
75786;DHT22;64402;44.708;37.644;2023-03-01T14:03:54;10.44;36.06
75786;DHT22;64402;44.708;37.644;2023-03-01T14:06:24;10.24;36.72
75786;DHT22;64402;44.708;37.644;2023-03-01T14:09:33;10.09;37.01
75786;DHT22;64402;44.708;37.644;2023-03-01T14:20:22;9.83;39.58
75786;DHT22;64402;44.708;37.644;2023-03-01T14:22:52;9.76;38.98
75786;DHT22;64402;44.708;37.644;2023-03-01T14:25:31;9.89;39.67
75786;DHT22;64402;44.708;37.644;2023-03-01T14:30:50;9.49;37.66
75786;DHT22;64402;44.708;37.644;2023-03-01T14:33:31;9.30;38.10
75786;DHT22;64402;44.708;37.644;2023-03-01T14:36:04;9.12;38.35
75786;DHT22;64402;44.708;37.644;2023-03-01T14:38:42;9.07;39.70
75786;DHT22;64402;44.708;37.644;2023-03-01T14:41:17;8.87;39.60
75786;DHT22;64402;44.708;37.644;2023-03-01T14:43:47;8.60;39.56
75786;DHT22;64402;44.708;37.644;2023-03-01T14:46:21;8.38;40.95
75786;DHT22;64402;44.708;37.644;2023-03-01T14:48:53;8.21;41.94
75786;DHT22;64402;44.708;37.644;2023-03-01T14:51:20;8.17;42.81
75786;DHT22;64402;44.708;37.644;2023-03-01T14:53:47;8.09;42.82
75786;DHT22;64402;44.708;37.644;2023-03-01T14:56:15;7.98;44.16
75786;DHT22;64402;44.708;37.644;2023-03-01T14:58:43;7.85;43.87
75786;DHT22;64402;44.708;37.644;2023-03-01T15:01:14;7.76;46.11
75786;DHT22;64402;44.708;37.644;2023-03-01T15:03:44;7.72;45.33
75786;DHT22;64402;44.708;37.644;2023-03-01T15:06:15;7.60;46.36
75786;DHT22;64402;44.708;37.644;2023-03-01T15:08:46;7.47;46.03
75786;DHT22;64402;44.708;37.644;2023-03-01T15:13:49;7.32;48.08
75786;DHT22;64402;44.708;37.644;2023-03-01T15:16:18;7.27;48.92
75786;DHT22;64402;44.708;37.644;2023-03-01T15:18:55;7.25;50.06
75786;DHT22;64402;44.708;37.644;2023-03-01T15:21:25;7.26;49.89
75786;DHT22;64402;44.708;37.644;2023-03-01T15:24:43;7.23;50.43
75786;DHT22;64402;44.708;37.644;2023-03-01T15:26:56;7.19;51.06
75786;DHT22;64402;44.708;37.644;2023-03-01T15:29:28;7.16;51.98
75786;DHT22;64402;44.708;37.644;2023-03-01T15:32:05;7.11;51.74
75786;DHT22;64402;44.708;37.644;2023-03-01T15:34:37;7.09;51.83
75786;DHT22;64402;44.708;37.644;2023-03-01T15:37:05;7.09;51.95
75786;DHT22;64402;44.708;37.644;2023-03-01T15:39:37;7.03;51.73
75786;DHT22;64402;44.708;37.644;2023-03-01T15:42:10;6.99;52.03
75786;DHT22;64402;44.708;37.644;2023-03-01T15:44:40;6.89;52.85
75786;DHT22;64402;44.708;37.644;2023-03-01T15:47:25;6.82;53.84
75786;DHT22;64402;44.708;37.644;2023-03-01T15:49:53;6.76;54.39
75786;DHT22;64402;44.708;37.644;2023-03-01T15:54:59;6.60;54.60
75786;DHT22;64402;44.708;37.644;2023-03-01T15:57:26;6.55;54.11
75786;DHT22;64402;44.708;37.644;2023-03-01T15:59:53;6.48;54.92
75786;DHT22;64402;44.708;37.644;2023-03-01T16:02:20;6.50;54.78
75786;DHT22;64402;44.708;37.644;2023-03-01T16:04:47;6.42;55.71
75786;DHT22;64402;44.708;37.644;2023-03-01T16:07:17;6.42;55.65
75786;DHT22;64402;44.708;37.644;2023-03-01T16:09:43;6.39;55.75
75786;DHT22;64402;44.708;37.644;2023-03-01T16:12:16;6.37;56.68
75786;DHT22;64402;44.708;37.644;2023-03-01T16:14:46;6.33;57.13
75786;DHT22;64402;44.708;37.644;2023-03-01T16:17:14;6.28;56.95
75786;DHT22;64402;44.708;37.644;2023-03-01T16:19:41;6.26;56.34
75786;DHT22;64402;44.708;37.644;2023-03-01T16:22:09;6.23;57.28
75786;DHT22;64402;44.708;37.644;2023-03-01T16:24:36;6.12;58.32
75786;DHT22;64402;44.708;37.644;2023-03-01T16:27:02;6.10;58.45
75786;DHT22;64402;44.708;37.644;2023-03-01T16:29:29;6.04;58.01
75786;DHT22;64402;44.708;37.644;2023-03-01T16:31:55;5.94;58.89
75786;DHT22;64402;44.708;37.644;2023-03-01T16:34:22;5.83;58.54
75786;DHT22;64402;44.708;37.644;2023-03-01T16:36:49;5.75;59.22
75786;DHT22;64402;44.708;37.644;2023-03-01T16:39:15;5.62;60.22
75786;DHT22;64402;44.708;37.644;2023-03-01T16:41:42;5.59;61.92
75786;DHT22;64402;44.708;37.644;2023-03-01T16:44:08;5.48;61.66
75786;DHT22;64402;44.708;37.644;2023-03-01T16:46:34;5.32;60.42
75786;DHT22;64402;44.708;37.644;2023-03-01T16:49:00;5.23;61.30
75786;DHT22;64402;44.708;37.644;2023-03-01T16:51:27;5.15;61.77
75786;DHT22;64402;44.708;37.644;2023-03-01T16:53:55;5.07;61.54
75786;DHT22;64402;44.708;37.644;2023-03-01T16:56:21;4.98;63.56
75786;DHT22;64402;44.708;37.644;2023-03-01T16:58:47;4.86;62.87
75786;DHT22;64402;44.708;37.644;2023-03-01T17:01:19;4.77;63.11
75786;DHT22;64402;44.708;37.644;2023-03-01T17:03:47;4.73;63.09
75786;DHT22;64402;44.708;37.644;2023-03-01T17:06:17;4.64;63.26
75786;DHT22;64402;44.708;37.644;2023-03-01T17:08:43;4.54;64.73
75786;DHT22;64402;44.708;37.644;2023-03-01T17:11:13;4.46;64.13
75786;DHT22;64402;44.708;37.644;2023-03-01T17:13:40;4.34;63.76
75786;DHT22;64402;44.708;37.644;2023-03-01T17:16:09;4.15;64.68
75786;DHT22;64402;44.708;37.644;2023-03-01T17:18:36;4.02;67.02
75786;DHT22;64402;44.708;37.644;2023-03-01T17:21:03;3.93;66.96
75786;DHT22;64402;44.708;37.644;2023-03-01T17:23:31;3.90;67.41
75786;DHT22;64402;44.708;37.644;2023-03-01T17:25:58;3.82;67.89
75786;DHT22;64402;44.708;37.644;2023-03-01T17:28:26;3.72;68.07
75786;DHT22;64402;44.708;37.644;2023-03-01T17:30:53;3.62;67.68
75786;DHT22;64402;44.708;37.644;2023-03-01T17:33:20;3.56;67.68
75786;DHT22;64402;44.708;37.644;2023-03-01T17:35:46;3.52;68.01
75786;DHT22;64402;44.708;37.644;2023-03-01T17:38:14;3.46;67.81
75786;DHT22;64402;44.708;37.644;2023-03-01T17:40:41;3.38;67.78
75786;DHT22;64402;44.708;37.644;2023-03-01T17:43:08;3.28;67.88
75786;DHT22;64402;44.708;37.644;2023-03-01T17:45:38;3.23;68.19
75786;DHT22;64402;44.708;37.644;2023-03-01T17:48:06;3.19;68.83